sensor_id;sensor_type;location;lat;lon;timestamp;temperature;humidity
41058;DHT22;27499;48.884;2.258;2022-07-06T00:01:54;19.50;90.20
41058;DHT22;27499;48.884;2.258;2022-07-06T00:04:21;19.40;90.30
41058;DHT22;27499;48.884;2.258;2022-07-06T00:06:48;19.50;90.60
41058;DHT22;27499;48.884;2.258;2022-07-06T00:09:15;19.40;90.50
41058;DHT22;27499;48.884;2.258;2022-07-06T00:11:42;19.40;90.80
41058;DHT22;27499;48.884;2.258;2022-07-06T00:14:09;19.30;90.80
41058;DHT22;27499;48.884;2.258;2022-07-06T00:16:36;19.30;90.80
41058;DHT22;27499;48.884;2.258;2022-07-06T00:19:03;19.30;90.80
41058;DHT22;27499;48.884;2.258;2022-07-06T00:21:30;19.30;90.90
41058;DHT22;27499;48.884;2.258;2022-07-06T00:23:57;19.30;91.00
41058;DHT22;27499;48.884;2.258;2022-07-06T00:26:24;19.20;91.50
41058;DHT22;27499;48.884;2.258;2022-07-06T00:28:51;19.20;91.10
41058;DHT22;27499;48.884;2.258;2022-07-06T00:31:18;19.20;91.80
41058;DHT22;27499;48.884;2.258;2022-07-06T00:33:45;19.20;91.60
41058;DHT22;27499;48.884;2.258;2022-07-06T00:36:12;19.20;91.20
41058;DHT22;27499;48.884;2.258;2022-07-06T00:38:39;19.20;91.10
41058;DHT22;27499;48.884;2.258;2022-07-06T00:41:06;19.10;91.40
41058;DHT22;27499;48.884;2.258;2022-07-06T00:43:49;19.20;91.40
41058;DHT22;27499;48.884;2.258;2022-07-06T00:46:16;19.10;91.40
41058;DHT22;27499;48.884;2.258;2022-07-06T00:48:44;19.10;91.60
41058;DHT22;27499;48.884;2.258;2022-07-06T00:51:11;19.10;91.50
41058;DHT22;27499;48.884;2.258;2022-07-06T00:53:38;19.10;91.60
41058;DHT22;27499;48.884;2.258;2022-07-06T00:56:06;19.10;91.50
41058;DHT22;27499;48.884;2.258;2022-07-06T00:58:33;19.00;91.60
41058;DHT22;27499;48.884;2.258;2022-07-06T01:01:00;19.00;91.70
41058;DHT22;27499;48.884;2.258;2022-07-06T01:03:27;19.00;91.80
41058;DHT22;27499;48.884;2.258;2022-07-06T01:05:54;19.00;91.80
41058;DHT22;27499;48.884;2.258;2022-07-06T01:08:22;19.00;91.70
41058;DHT22;27499;48.884;2.258;2022-07-06T01:10:51;18.90;91.90
41058;DHT22;27499;48.884;2.258;2022-07-06T01:13:18;18.90;92.00
41058;DHT22;27499;48.884;2.258;2022-07-06T01:15:45;18.90;91.90
41058;DHT22;27499;48.884;2.258;2022-07-06T01:18:12;18.90;92.00
41058;DHT22;27499;48.884;2.258;2022-07-06T01:20:39;18.90;91.80
41058;DHT22;27499;48.884;2.258;2022-07-06T01:23:06;18.80;92.00
41058;DHT22;27499;48.884;2.258;2022-07-06T01:25:33;18.80;92.10
41058;DHT22;27499;48.884;2.258;2022-07-06T01:28:00;18.80;92.20
41058;DHT22;27499;48.884;2.258;2022-07-06T01:30:27;18.80;92.20
41058;DHT22;27499;48.884;2.258;2022-07-06T01:32:54;18.70;92.30
41058;DHT22;27499;48.884;2.258;2022-07-06T01:35:21;18.70;92.30
41058;DHT22;27499;48.884;2.258;2022-07-06T01:37:48;18.70;92.40
41058;DHT22;27499;48.884;2.258;2022-07-06T01:40:15;18.60;92.50
41058;DHT22;27499;48.884;2.258;2022-07-06T01:42:42;18.60;93.00
41058;DHT22;27499;48.884;2.258;2022-07-06T01:45:10;18.60;92.60
41058;DHT22;27499;48.884;2.258;2022-07-06T01:47:37;18.60;92.70
41058;DHT22;27499;48.884;2.258;2022-07-06T01:50:07;18.60;92.70
41058;DHT22;27499;48.884;2.258;2022-07-06T01:52:34;18.50;92.70
41058;DHT22;27499;48.884;2.258;2022-07-06T01:55:01;18.50;92.90
41058;DHT22;27499;48.884;2.258;2022-07-06T01:57:29;18.50;93.10
41058;DHT22;27499;48.884;2.258;2022-07-06T01:59:55;18.50;92.90
41058;DHT22;27499;48.884;2.258;2022-07-06T02:02:22;18.50;93.10
41058;DHT22;27499;48.884;2.258;2022-07-06T02:04:49;18.50;93.10
41058;DHT22;27499;48.884;2.258;2022-07-06T02:07:16;18.40;93.10
41058;DHT22;27499;48.884;2.258;2022-07-06T02:09:43;18.40;93.10
41058;DHT22;27499;48.884;2.258;2022-07-06T02:12:10;18.40;93.60
41058;DHT22;27499;48.884;2.258;2022-07-06T02:14:37;18.40;93.30
41058;DHT22;27499;48.884;2.258;2022-07-06T02:17:04;18.30;93.40
41058;DHT22;27499;48.884;2.258;2022-07-06T02:19:31;18.30;93.40
41058;DHT22;27499;48.884;2.258;2022-07-06T02:21:58;18.30;93.50
41058;DHT22;27499;48.884;2.258;2022-07-06T02:24:25;18.20;93.60
41058;DHT22;27499;48.884;2.258;2022-07-06T02:26:51;18.20;93.80
41058;DHT22;27499;48.884;2.258;2022-07-06T02:29:18;18.20;93.50
41058;DHT22;27499;48.884;2.258;2022-07-06T02:31:46;18.20;93.70
41058;DHT22;27499;48.884;2.258;2022-07-06T02:34:13;18.20;93.80
41058;DHT22;27499;48.884;2.258;2022-07-06T02:36:40;18.20;93.80
41058;DHT22;27499;48.884;2.258;2022-07-06T02:39:07;18.10;93.80
41058;DHT22;27499;48.884;2.258;2022-07-06T02:41:34;18.10;94.20
41058;DHT22;27499;48.884;2.258;2022-07-06T02:44:01;18.10;94.00
41058;DHT22;27499;48.884;2.258;2022-07-06T02:46:27;18.10;94.00
41058;DHT22;27499;48.884;2.258;2022-07-06T02:48:54;18.10;94.20
41058;DHT22;27499;48.884;2.258;2022-07-06T02:51:21;18.10;94.00
41058;DHT22;27499;48.884;2.258;2022-07-06T02:53:50;18.00;94.50
41058;DHT22;27499;48.884;2.258;2022-07-06T02:56:17;18.00;94.20
41058;DHT22;27499;48.884;2.258;2022-07-06T02:58:44;18.00;94.90
41058;DHT22;27499;48.884;2.258;2022-07-06T03:01:11;18.00;94.30
41058;DHT22;27499;48.884;2.258;2022-07-06T03:03:38;18.00;94.70
41058;DHT22;27499;48.884;2.258;2022-07-06T03:06:05;17.90;94.70
41058;DHT22;27499;48.884;2.258;2022-07-06T03:08:32;17.90;94.70
41058;DHT22;27499;48.884;2.258;2022-07-06T03:11:00;17.90;95.10
41058;DHT22;27499;48.884;2.258;2022-07-06T03:13:28;17.90;94.80
41058;DHT22;27499;48.884;2.258;2022-07-06T03:15:55;17.90;94.70
41058;DHT22;27499;48.884;2.258;2022-07-06T03:18:22;17.90;94.60
41058;DHT22;27499;48.884;2.258;2022-07-06T03:20:50;17.90;94.50
41058;DHT22;27499;48.884;2.258;2022-07-06T03:23:16;17.90;94.80
41058;DHT22;27499;48.884;2.258;2022-07-06T03:25:44;17.90;95.00
41058;DHT22;27499;48.884;2.258;2022-07-06T03:28:11;17.90;94.80
41058;DHT22;27499;48.884;2.258;2022-07-06T03:30:37;17.80;94.70
41058;DHT22;27499;48.884;2.258;2022-07-06T03:33:04;17.90;95.00
41058;DHT22;27499;48.884;2.258;2022-07-06T03:35:31;17.90;94.80
41058;DHT22;27499;48.884;2.258;2022-07-06T03:37:58;17.90;95.00
41058;DHT22;27499;48.884;2.258;2022-07-06T03:40:25;17.80;94.80
41058;DHT22;27499;48.884;2.258;2022-07-06T03:42:52;17.80;95.00
41058;DHT22;27499;48.884;2.258;2022-07-06T03:45:19;17.80;95.20
41058;DHT22;27499;48.884;2.258;2022-07-06T03:47:46;17.80;95.10
41058;DHT22;27499;48.884;2.258;2022-07-06T03:50:13;17.70;94.90
41058;DHT22;27499;48.884;2.258;2022-07-06T03:52:39;17.70;95.00
41058;DHT22;27499;48.884;2.258;2022-07-06T03:55:11;17.70;95.00
41058;DHT22;27499;48.884;2.258;2022-07-06T03:57:38;17.70;95.10
41058;DHT22;27499;48.884;2.258;2022-07-06T04:00:08;17.70;95.30
41058;DHT22;27499;48.884;2.258;2022-07-06T04:02:35;17.70;95.40
41058;DHT22;27499;48.884;2.258;2022-07-06T04:05:02;17.70;95.30
41058;DHT22;27499;48.884;2.258;2022-07-06T04:07:29;17.70;95.40
41058;DHT22;27499;48.884;2.258;2022-07-06T04:09:56;17.70;95.40
41058;DHT22;27499;48.884;2.258;2022-07-06T04:12:24;17.70;95.50
41058;DHT22;27499;48.884;2.258;2022-07-06T04:14:52;17.70;95.40
41058;DHT22;27499;48.884;2.258;2022-07-06T04:17:19;17.60;95.60
41058;DHT22;27499;48.884;2.258;2022-07-06T04:20:05;17.60;95.50
41058;DHT22;27499;48.884;2.258;2022-07-06T04:22:32;17.70;95.60
41058;DHT22;27499;48.884;2.258;2022-07-06T04:24:59;17.60;95.70
41058;DHT22;27499;48.884;2.258;2022-07-06T04:27:26;17.60;95.80
41058;DHT22;27499;48.884;2.258;2022-07-06T04:29:53;17.60;95.80
41058;DHT22;27499;48.884;2.258;2022-07-06T04:32:20;17.60;95.80
41058;DHT22;27499;48.884;2.258;2022-07-06T04:34:52;17.70;95.80
41058;DHT22;27499;48.884;2.258;2022-07-06T04:37:19;17.60;95.90
41058;DHT22;27499;48.884;2.258;2022-07-06T04:39:46;17.60;96.00
41058;DHT22;27499;48.884;2.258;2022-07-06T04:42:12;17.60;96.10
41058;DHT22;27499;48.884;2.258;2022-07-06T04:44:39;17.70;96.10
41058;DHT22;27499;48.884;2.258;2022-07-06T04:47:06;17.70;96.30
41058;DHT22;27499;48.884;2.258;2022-07-06T04:49:33;17.70;96.30
41058;DHT22;27499;48.884;2.258;2022-07-06T04:52:00;17.70;96.40
41058;DHT22;27499;48.884;2.258;2022-07-06T04:54:27;17.70;96.20
41058;DHT22;27499;48.884;2.258;2022-07-06T04:56:54;17.70;96.20
41058;DHT22;27499;48.884;2.258;2022-07-06T04:59:21;17.70;96.10
41058;DHT22;27499;48.884;2.258;2022-07-06T05:01:48;17.70;96.30
41058;DHT22;27499;48.884;2.258;2022-07-06T05:04:15;17.70;96.10
41058;DHT22;27499;48.884;2.258;2022-07-06T05:06:45;17.70;96.30
41058;DHT22;27499;48.884;2.258;2022-07-06T05:09:13;17.70;96.40
41058;DHT22;27499;48.884;2.258;2022-07-06T05:11:40;17.70;96.50
41058;DHT22;27499;48.884;2.258;2022-07-06T05:14:07;17.80;96.40
41058;DHT22;27499;48.884;2.258;2022-07-06T05:16:34;17.80;96.70
41058;DHT22;27499;48.884;2.258;2022-07-06T05:19:01;17.80;96.50
41058;DHT22;27499;48.884;2.258;2022-07-06T05:21:27;17.80;96.30
41058;DHT22;27499;48.884;2.258;2022-07-06T05:23:54;17.70;96.40
41058;DHT22;27499;48.884;2.258;2022-07-06T05:26:21;17.80;96.70
41058;DHT22;27499;48.884;2.258;2022-07-06T05:28:48;17.70;96.00
41058;DHT22;27499;48.884;2.258;2022-07-06T05:31:15;17.80;96.20
41058;DHT22;27499;48.884;2.258;2022-07-06T05:33:42;17.80;95.90
41058;DHT22;27499;48.884;2.258;2022-07-06T05:36:09;17.80;96.30
41058;DHT22;27499;48.884;2.258;2022-07-06T05:38:36;17.80;95.80
41058;DHT22;27499;48.884;2.258;2022-07-06T05:41:03;17.90;96.20
41058;DHT22;27499;48.884;2.258;2022-07-06T05:43:30;17.80;96.20
41058;DHT22;27499;48.884;2.258;2022-07-06T05:45:57;17.90;96.10
41058;DHT22;27499;48.884;2.258;2022-07-06T05:48:23;17.90;96.00
41058;DHT22;27499;48.884;2.258;2022-07-06T05:51:09;17.90;95.50
41058;DHT22;27499;48.884;2.258;2022-07-06T05:53:36;17.90;95.50
41058;DHT22;27499;48.884;2.258;2022-07-06T05:56:03;18.00;95.60
41058;DHT22;27499;48.884;2.258;2022-07-06T05:58:30;18.00;95.40
41058;DHT22;27499;48.884;2.258;2022-07-06T06:00:57;18.00;95.50
41058;DHT22;27499;48.884;2.258;2022-07-06T06:03:24;18.00;95.20
41058;DHT22;27499;48.884;2.258;2022-07-06T06:05:51;18.00;95.30
41058;DHT22;27499;48.884;2.258;2022-07-06T06:08:18;18.10;95.30
41058;DHT22;27499;48.884;2.258;2022-07-06T06:10:45;18.10;95.10
41058;DHT22;27499;48.884;2.258;2022-07-06T06:13:12;18.10;94.80
41058;DHT22;27499;48.884;2.258;2022-07-06T06:15:39;18.10;94.80
41058;DHT22;27499;48.884;2.258;2022-07-06T06:18:06;18.20;94.70
41058;DHT22;27499;48.884;2.258;2022-07-06T06:20:33;18.10;94.80
41058;DHT22;27499;48.884;2.258;2022-07-06T06:23:00;18.20;95.00
41058;DHT22;27499;48.884;2.258;2022-07-06T06:25:32;18.20;95.00
41058;DHT22;27499;48.884;2.258;2022-07-06T06:28:00;18.30;94.30
41058;DHT22;27499;48.884;2.258;2022-07-06T06:30:27;18.30;94.10
41058;DHT22;27499;48.884;2.258;2022-07-06T06:33:15;18.30;94.10
41058;DHT22;27499;48.884;2.258;2022-07-06T06:35:47;18.40;94.80
41058;DHT22;27499;48.884;2.258;2022-07-06T06:38:15;18.40;94.40
41058;DHT22;27499;48.884;2.258;2022-07-06T06:40:42;18.50;94.60
41058;DHT22;27499;48.884;2.258;2022-07-06T06:43:10;18.50;94.70
41058;DHT22;27499;48.884;2.258;2022-07-06T06:45:37;18.50;94.60
41058;DHT22;27499;48.884;2.258;2022-07-06T06:48:04;18.50;93.90
41058;DHT22;27499;48.884;2.258;2022-07-06T06:50:31;18.50;93.70
41058;DHT22;27499;48.884;2.258;2022-07-06T06:52:58;18.60;93.70
41058;DHT22;27499;48.884;2.258;2022-07-06T06:55:25;18.60;94.40
41058;DHT22;27499;48.884;2.258;2022-07-06T06:57:52;18.60;94.40
41058;DHT22;27499;48.884;2.258;2022-07-06T07:00:19;18.60;94.20
41058;DHT22;27499;48.884;2.258;2022-07-06T07:02:46;18.70;93.30
41058;DHT22;27499;48.884;2.258;2022-07-06T07:05:14;18.80;93.00
41058;DHT22;27499;48.884;2.258;2022-07-06T07:07:40;18.80;92.30
41058;DHT22;27499;48.884;2.258;2022-07-06T07:10:08;18.90;92.40
41058;DHT22;27499;48.884;2.258;2022-07-06T07:12:34;18.90;92.60
41058;DHT22;27499;48.884;2.258;2022-07-06T07:15:02;19.00;92.80
41058;DHT22;27499;48.884;2.258;2022-07-06T07:17:29;19.00;92.10
41058;DHT22;27499;48.884;2.258;2022-07-06T07:19:55;19.10;92.00
41058;DHT22;27499;48.884;2.258;2022-07-06T07:22:24;19.10;91.70
41058;DHT22;27499;48.884;2.258;2022-07-06T07:24:51;19.10;91.70
41058;DHT22;27499;48.884;2.258;2022-07-06T07:27:18;19.10;94.10
41058;DHT22;27499;48.884;2.258;2022-07-06T07:29:45;19.20;92.50
41058;DHT22;27499;48.884;2.258;2022-07-06T07:32:11;19.30;91.90
41058;DHT22;27499;48.884;2.258;2022-07-06T07:34:38;19.40;91.30
41058;DHT22;27499;48.884;2.258;2022-07-06T07:37:05;19.40;91.20
41058;DHT22;27499;48.884;2.258;2022-07-06T07:39:32;19.40;90.70
41058;DHT22;27499;48.884;2.258;2022-07-06T07:41:59;19.50;90.50
41058;DHT22;27499;48.884;2.258;2022-07-06T07:44:26;19.60;91.10
41058;DHT22;27499;48.884;2.258;2022-07-06T07:46:54;19.60;91.80
41058;DHT22;27499;48.884;2.258;2022-07-06T07:49:21;19.70;91.50
41058;DHT22;27499;48.884;2.258;2022-07-06T07:51:48;19.70;91.50
41058;DHT22;27499;48.884;2.258;2022-07-06T07:54:16;19.70;91.80
41058;DHT22;27499;48.884;2.258;2022-07-06T07:56:43;19.80;92.10
41058;DHT22;27499;48.884;2.258;2022-07-06T07:59:10;19.80;93.70
41058;DHT22;27499;48.884;2.258;2022-07-06T08:01:36;19.90;92.10
41058;DHT22;27499;48.884;2.258;2022-07-06T08:04:04;19.90;91.60
41058;DHT22;27499;48.884;2.258;2022-07-06T08:06:31;19.90;91.20
41058;DHT22;27499;48.884;2.258;2022-07-06T08:08:58;20.00;91.30
41058;DHT22;27499;48.884;2.258;2022-07-06T08:11:25;20.10;91.20
41058;DHT22;27499;48.884;2.258;2022-07-06T08:13:52;20.10;91.30
41058;DHT22;27499;48.884;2.258;2022-07-06T08:16:20;20.20;91.20
41058;DHT22;27499;48.884;2.258;2022-07-06T08:18:47;20.30;91.60
41058;DHT22;27499;48.884;2.258;2022-07-06T08:21:14;20.30;90.20
41058;DHT22;27499;48.884;2.258;2022-07-06T08:23:56;20.40;90.90
41058;DHT22;27499;48.884;2.258;2022-07-06T08:26:23;20.50;92.10
41058;DHT22;27499;48.884;2.258;2022-07-06T08:28:50;20.60;89.80
41058;DHT22;27499;48.884;2.258;2022-07-06T08:31:17;20.60;89.50
41058;DHT22;27499;48.884;2.258;2022-07-06T08:34:04;20.70;89.40
41058;DHT22;27499;48.884;2.258;2022-07-06T08:36:31;20.70;90.70
41058;DHT22;27499;48.884;2.258;2022-07-06T08:38:58;20.80;88.50
41058;DHT22;27499;48.884;2.258;2022-07-06T08:41:28;20.80;90.10
41058;DHT22;27499;48.884;2.258;2022-07-06T08:43:56;20.90;90.00
41058;DHT22;27499;48.884;2.258;2022-07-06T08:46:23;20.90;89.40
41058;DHT22;27499;48.884;2.258;2022-07-06T08:48:50;20.90;87.50
41058;DHT22;27499;48.884;2.258;2022-07-06T08:51:17;21.00;87.60
41058;DHT22;27499;48.884;2.258;2022-07-06T08:53:45;21.00;88.90
41058;DHT22;27499;48.884;2.258;2022-07-06T08:56:12;21.10;87.60
41058;DHT22;27499;48.884;2.258;2022-07-06T08:58:39;21.20;88.60
41058;DHT22;27499;48.884;2.258;2022-07-06T09:01:10;21.20;87.20
41058;DHT22;27499;48.884;2.258;2022-07-06T09:03:41;21.30;87.40
41058;DHT22;27499;48.884;2.258;2022-07-06T09:06:08;21.30;87.00
41058;DHT22;27499;48.884;2.258;2022-07-06T09:08:36;21.30;89.20
41058;DHT22;27499;48.884;2.258;2022-07-06T09:11:04;21.40;90.40
41058;DHT22;27499;48.884;2.258;2022-07-06T09:13:31;21.50;90.10
41058;DHT22;27499;48.884;2.258;2022-07-06T09:16:12;21.50;90.10
41058;DHT22;27499;48.884;2.258;2022-07-06T09:18:59;21.60;91.20
41058;DHT22;27499;48.884;2.258;2022-07-06T09:21:28;21.70;90.40
41058;DHT22;27499;48.884;2.258;2022-07-06T09:23:59;21.70;86.70
41058;DHT22;27499;48.884;2.258;2022-07-06T09:26:26;21.80;87.10
41058;DHT22;27499;48.884;2.258;2022-07-06T09:28:55;21.80;88.30
41058;DHT22;27499;48.884;2.258;2022-07-06T09:31:23;21.80;89.00
41058;DHT22;27499;48.884;2.258;2022-07-06T09:34:04;21.80;87.20
41058;DHT22;27499;48.884;2.258;2022-07-06T09:36:47;21.90;87.10
41058;DHT22;27499;48.884;2.258;2022-07-06T09:41:48;22.00;86.20
41058;DHT22;27499;48.884;2.258;2022-07-06T09:44:24;22.00;85.00
41058;DHT22;27499;48.884;2.258;2022-07-06T09:46:52;22.10;86.60
41058;DHT22;27499;48.884;2.258;2022-07-06T09:49:20;22.20;88.20
41058;DHT22;27499;48.884;2.258;2022-07-06T09:51:54;22.20;84.60
41058;DHT22;27499;48.884;2.258;2022-07-06T09:54:21;22.30;86.50
41058;DHT22;27499;48.884;2.258;2022-07-06T09:56:51;22.30;84.40
41058;DHT22;27499;48.884;2.258;2022-07-06T09:59:23;22.30;85.00
41058;DHT22;27499;48.884;2.258;2022-07-06T10:01:53;22.30;86.20
41058;DHT22;27499;48.884;2.258;2022-07-06T10:04:21;22.40;86.50
41058;DHT22;27499;48.884;2.258;2022-07-06T10:06:49;22.50;88.00
41058;DHT22;27499;48.884;2.258;2022-07-06T10:09:18;22.50;86.20
41058;DHT22;27499;48.884;2.258;2022-07-06T10:11:57;22.50;87.10
41058;DHT22;27499;48.884;2.258;2022-07-06T10:14:31;22.40;86.00
41058;DHT22;27499;48.884;2.258;2022-07-06T10:17:04;22.50;87.20
41058;DHT22;27499;48.884;2.258;2022-07-06T10:19:32;22.60;85.00
41058;DHT22;27499;48.884;2.258;2022-07-06T10:22:01;22.50;83.80
41058;DHT22;27499;48.884;2.258;2022-07-06T10:24:29;22.60;84.50
41058;DHT22;27499;48.884;2.258;2022-07-06T10:26:57;22.60;84.90
41058;DHT22;27499;48.884;2.258;2022-07-06T10:29:25;22.70;85.20
41058;DHT22;27499;48.884;2.258;2022-07-06T10:31:52;22.70;84.20
41058;DHT22;27499;48.884;2.258;2022-07-06T10:34:21;22.80;86.20
41058;DHT22;27499;48.884;2.258;2022-07-06T10:36:50;22.80;86.00
41058;DHT22;27499;48.884;2.258;2022-07-06T10:39:35;22.90;84.90
41058;DHT22;27499;48.884;2.258;2022-07-06T10:42:44;22.90;85.50
41058;DHT22;27499;48.884;2.258;2022-07-06T10:45:13;22.90;87.20
41058;DHT22;27499;48.884;2.258;2022-07-06T10:47:42;23.00;85.20
41058;DHT22;27499;48.884;2.258;2022-07-06T10:50:10;23.00;85.20
41058;DHT22;27499;48.884;2.258;2022-07-06T10:55:37;23.00;88.40
41058;DHT22;27499;48.884;2.258;2022-07-06T10:58:05;23.10;89.90
41058;DHT22;27499;48.884;2.258;2022-07-06T11:00:51;23.10;89.50
41058;DHT22;27499;48.884;2.258;2022-07-06T11:06:13;23.00;83.50
41058;DHT22;27499;48.884;2.258;2022-07-06T11:12:07;23.10;85.20
41058;DHT22;27499;48.884;2.258;2022-07-06T11:14:11;23.00;84.80
41058;DHT22;27499;48.884;2.258;2022-07-06T11:19:16;23.10;86.00
41058;DHT22;27499;48.884;2.258;2022-07-06T11:24:16;23.10;85.60
41058;DHT22;27499;48.884;2.258;2022-07-06T11:26:44;23.10;85.90
41058;DHT22;27499;48.884;2.258;2022-07-06T11:29:14;23.20;82.70
41058;DHT22;27499;48.884;2.258;2022-07-06T11:31:42;23.20;86.20
41058;DHT22;27499;48.884;2.258;2022-07-06T11:34:11;23.20;82.60
41058;DHT22;27499;48.884;2.258;2022-07-06T11:36:38;23.10;83.60
41058;DHT22;27499;48.884;2.258;2022-07-06T11:39:12;23.20;86.10
41058;DHT22;27499;48.884;2.258;2022-07-06T11:41:39;23.20;82.10
41058;DHT22;27499;48.884;2.258;2022-07-06T11:44:08;23.10;80.10
41058;DHT22;27499;48.884;2.258;2022-07-06T11:46:36;23.20;79.60
41058;DHT22;27499;48.884;2.258;2022-07-06T11:49:04;23.20;82.50
41058;DHT22;27499;48.884;2.258;2022-07-06T11:51:37;23.20;83.20
41058;DHT22;27499;48.884;2.258;2022-07-06T11:54:16;23.30;86.70
41058;DHT22;27499;48.884;2.258;2022-07-06T11:56:59;23.30;86.10
41058;DHT22;27499;48.884;2.258;2022-07-06T11:59:31;23.30;86.00
41058;DHT22;27499;48.884;2.258;2022-07-06T12:04:30;23.40;84.30
41058;DHT22;27499;48.884;2.258;2022-07-06T12:07:06;23.40;83.80
41058;DHT22;27499;48.884;2.258;2022-07-06T12:09:36;23.40;82.50
41058;DHT22;27499;48.884;2.258;2022-07-06T12:12:04;23.50;83.70
41058;DHT22;27499;48.884;2.258;2022-07-06T12:14:33;23.50;82.00
41058;DHT22;27499;48.884;2.258;2022-07-06T12:17:08;23.60;82.20
41058;DHT22;27499;48.884;2.258;2022-07-06T12:19:37;23.60;81.40
41058;DHT22;27499;48.884;2.258;2022-07-06T12:22:04;23.50;82.00
41058;DHT22;27499;48.884;2.258;2022-07-06T12:24:33;23.50;81.00
41058;DHT22;27499;48.884;2.258;2022-07-06T12:27:17;23.60;80.30
41058;DHT22;27499;48.884;2.258;2022-07-06T12:29:46;23.60;81.00
41058;DHT22;27499;48.884;2.258;2022-07-06T12:32:18;23.60;80.60
41058;DHT22;27499;48.884;2.258;2022-07-06T12:34:46;23.60;80.80
41058;DHT22;27499;48.884;2.258;2022-07-06T12:37:13;23.60;81.50
41058;DHT22;27499;48.884;2.258;2022-07-06T12:39:46;23.70;79.80
41058;DHT22;27499;48.884;2.258;2022-07-06T12:42:14;23.70;81.70
41058;DHT22;27499;48.884;2.258;2022-07-06T12:44:50;23.70;80.50
41058;DHT22;27499;48.884;2.258;2022-07-06T12:47:22;23.70;79.10
41058;DHT22;27499;48.884;2.258;2022-07-06T12:50:08;23.70;79.20
41058;DHT22;27499;48.884;2.258;2022-07-06T12:52:35;23.80;80.70
41058;DHT22;27499;48.884;2.258;2022-07-06T12:55:04;23.80;77.00
41058;DHT22;27499;48.884;2.258;2022-07-06T12:57:48;23.80;77.00
41058;DHT22;27499;48.884;2.258;2022-07-06T13:00:16;23.80;77.50
41058;DHT22;27499;48.884;2.258;2022-07-06T13:02:45;23.80;78.90
41058;DHT22;27499;48.884;2.258;2022-07-06T13:05:32;23.80;77.40
41058;DHT22;27499;48.884;2.258;2022-07-06T13:08:00;23.80;78.00
41058;DHT22;27499;48.884;2.258;2022-07-06T13:10:28;23.80;78.00
41058;DHT22;27499;48.884;2.258;2022-07-06T13:12:58;23.80;76.90
41058;DHT22;27499;48.884;2.258;2022-07-06T13:15:25;23.80;76.70
41058;DHT22;27499;48.884;2.258;2022-07-06T13:17:52;23.80;78.60
41058;DHT22;27499;48.884;2.258;2022-07-06T13:20:19;23.80;79.20
41058;DHT22;27499;48.884;2.258;2022-07-06T13:22:46;23.80;76.70
41058;DHT22;27499;48.884;2.258;2022-07-06T13:25:13;23.80;78.50
41058;DHT22;27499;48.884;2.258;2022-07-06T13:27:40;23.80;79.80
41058;DHT22;27499;48.884;2.258;2022-07-06T13:30:08;23.80;78.60
41058;DHT22;27499;48.884;2.258;2022-07-06T13:32:35;23.80;79.40
41058;DHT22;27499;48.884;2.258;2022-07-06T13:35:02;23.80;78.70
41058;DHT22;27499;48.884;2.258;2022-07-06T13:37:29;23.80;80.80
41058;DHT22;27499;48.884;2.258;2022-07-06T13:39:56;23.80;80.30
41058;DHT22;27499;48.884;2.258;2022-07-06T13:42:23;23.80;80.40
41058;DHT22;27499;48.884;2.258;2022-07-06T13:44:49;23.80;80.40
41058;DHT22;27499;48.884;2.258;2022-07-06T13:47:16;23.80;80.10
41058;DHT22;27499;48.884;2.258;2022-07-06T13:49:43;23.80;80.20
41058;DHT22;27499;48.884;2.258;2022-07-06T13:52:14;23.80;79.30
41058;DHT22;27499;48.884;2.258;2022-07-06T13:54:41;23.80;80.40
41058;DHT22;27499;48.884;2.258;2022-07-06T13:57:08;23.80;78.40
41058;DHT22;27499;48.884;2.258;2022-07-06T13:59:35;23.80;78.90
41058;DHT22;27499;48.884;2.258;2022-07-06T14:02:02;23.80;77.10
41058;DHT22;27499;48.884;2.258;2022-07-06T14:04:29;23.70;78.20
41058;DHT22;27499;48.884;2.258;2022-07-06T14:06:56;23.70;77.00
41058;DHT22;27499;48.884;2.258;2022-07-06T14:09:23;23.70;76.00
41058;DHT22;27499;48.884;2.258;2022-07-06T14:11:50;23.80;78.30
41058;DHT22;27499;48.884;2.258;2022-07-06T14:14:17;23.80;80.60
41058;DHT22;27499;48.884;2.258;2022-07-06T14:16:44;23.80;80.40
41058;DHT22;27499;48.884;2.258;2022-07-06T14:19:11;23.80;79.10
41058;DHT22;27499;48.884;2.258;2022-07-06T14:21:46;23.80;80.30
41058;DHT22;27499;48.884;2.258;2022-07-06T14:24:13;23.80;83.00
41058;DHT22;27499;48.884;2.258;2022-07-06T14:26:40;23.80;81.20
41058;DHT22;27499;48.884;2.258;2022-07-06T14:29:07;23.80;78.80
41058;DHT22;27499;48.884;2.258;2022-07-06T14:31:34;23.80;77.40
41058;DHT22;27499;48.884;2.258;2022-07-06T14:34:01;23.80;81.90
41058;DHT22;27499;48.884;2.258;2022-07-06T14:36:28;23.70;78.50
41058;DHT22;27499;48.884;2.258;2022-07-06T14:38:55;23.80;78.60
41058;DHT22;27499;48.884;2.258;2022-07-06T14:41:22;23.80;78.00
41058;DHT22;27499;48.884;2.258;2022-07-06T14:43:49;23.80;78.60
41058;DHT22;27499;48.884;2.258;2022-07-06T14:46:16;23.80;78.90
41058;DHT22;27499;48.884;2.258;2022-07-06T14:48:43;23.80;77.80
41058;DHT22;27499;48.884;2.258;2022-07-06T14:51:10;23.80;77.40
41058;DHT22;27499;48.884;2.258;2022-07-06T14:53:37;23.80;77.60
41058;DHT22;27499;48.884;2.258;2022-07-06T14:56:04;23.80;79.40
41058;DHT22;27499;48.884;2.258;2022-07-06T14:58:31;23.80;77.50
41058;DHT22;27499;48.884;2.258;2022-07-06T15:00:58;23.90;79.30
41058;DHT22;27499;48.884;2.258;2022-07-06T15:03:26;23.80;80.00
41058;DHT22;27499;48.884;2.258;2022-07-06T15:05:54;23.80;79.20
41058;DHT22;27499;48.884;2.258;2022-07-06T15:08:21;23.80;78.80
41058;DHT22;27499;48.884;2.258;2022-07-06T15:10:49;23.80;77.00
41058;DHT22;27499;48.884;2.258;2022-07-06T15:13:16;23.90;76.80
41058;DHT22;27499;48.884;2.258;2022-07-06T15:15:43;23.90;77.00
41058;DHT22;27499;48.884;2.258;2022-07-06T15:18:22;23.80;77.40
41058;DHT22;27499;48.884;2.258;2022-07-06T15:20:49;23.80;78.70
41058;DHT22;27499;48.884;2.258;2022-07-06T15:23:16;23.80;80.80
41058;DHT22;27499;48.884;2.258;2022-07-06T15:25:43;23.80;80.10
41058;DHT22;27499;48.884;2.258;2022-07-06T15:28:16;23.80;80.60
41058;DHT22;27499;48.884;2.258;2022-07-06T15:30:46;23.80;80.60
41058;DHT22;27499;48.884;2.258;2022-07-06T15:33:13;23.70;83.10
41058;DHT22;27499;48.884;2.258;2022-07-06T15:35:40;23.70;81.00
41058;DHT22;27499;48.884;2.258;2022-07-06T15:38:07;23.70;80.00
41058;DHT22;27499;48.884;2.258;2022-07-06T15:40:34;23.70;79.60
41058;DHT22;27499;48.884;2.258;2022-07-06T15:43:07;23.80;79.30
41058;DHT22;27499;48.884;2.258;2022-07-06T15:45:34;23.80;79.60
41058;DHT22;27499;48.884;2.258;2022-07-06T15:48:03;23.80;78.30
41058;DHT22;27499;48.884;2.258;2022-07-06T15:50:30;23.80;78.90
41058;DHT22;27499;48.884;2.258;2022-07-06T15:52:58;23.80;79.50
41058;DHT22;27499;48.884;2.258;2022-07-06T15:55:25;23.80;78.60
41058;DHT22;27499;48.884;2.258;2022-07-06T15:57:53;23.80;78.10